Hold Fast — PA5804 — position and weather

sailwx.info

Track history (hours):
 
Tides and Currents Weather Stations Pressure Air Temp Water Temp Dewpoint Dewpoint Depression Visibility Wind Speed Wind Dir Waves Ship Positions

Hold Fast

Last reported at 2017-Aug-17 14:43 UTC. Time now 2017-Nov-19 02:48 UTC.
Position N 47°57' W 005°19'.
Warning: this ship's position is months out of date.

Length 17 m.

Type: Sailing vessel. MMSI: 244660241.

Date/timePositionNaut miles runAvg speedWind from/ knotsBaromVisibWave heightAir tempDewpointWater temp
2017-Aug-17 14:43N 47°57' W 005°19'16 6.0
2017-Aug-17 11:58N 48°12' W 005°09'7 6.9
2017-Aug-17 10:58N 48°14' W 004°59'7 6.9
2017-Aug-17 09:53N 48°16' W 004°49'2 6.5
2017-Aug-17 09:30N 48°17' W 004°45'3 6.3
2017-Aug-17 09:00N 48°18' W 004°41'3 6.6
2017-Aug-17 08:30N 48°20' W 004°36'3 5.9
2017-Aug-17 08:00N 48°21' W 004°32'3 4.8
2017-Aug-17 07:28N 48°23' W 004°29'0 0.0
2017-Aug-17 06:58N 48°23' W 004°29'0 0.0
2017-Aug-16 21:36N 48°23' W 004°29'0 0.0
2017-Aug-16 21:30N 48°23' W 004°29'0 0.0
2017-Aug-16 21:00N 48°23' W 004°29'0 0.0
2017-Aug-16 20:30N 48°23' W 004°29'0 0.0
2017-Aug-16 20:00N 48°23' W 004°29'0 0.0
2017-Aug-16 19:30N 48°23' W 004°29'0 0.0
2017-Aug-16 19:00N 48°23' W 004°29'0 0.0
2017-Aug-16 18:30N 48°23' W 004°29'0 0.0
2017-Aug-16 18:00N 48°23' W 004°29'0 0.0
2017-Aug-16 17:25N 48°23' W 004°29'0 0.0
2017-Aug-16 16:58N 48°23' W 004°29'0 0.0
2017-Aug-15 17:05N 48°23' W 004°29'0 0.0
2017-Aug-15 17:00N 48°23' W 004°29'3 6.1
2017-Aug-15 16:30N 48°21' W 004°33'3 5.4
2017-Aug-15 16:00N 48°20' W 004°37'2 3.9
2017-Aug-15 15:30N 48°20' W 004°40'2 3.7
2017-Aug-15 15:00N 48°19' W 004°43'1 2.9
2017-Aug-15 14:30N 48°19' W 004°45'1 2.6
2017-Aug-15 13:59N 48°19' W 004°47'7 8.6
2017-Aug-15 13:07N 48°26' W 004°50'2 8.4
2017-Aug-15 12:56N 48°28' W 004°50'3 7.8
2017-Aug-15 12:30N 48°31' W 004°49'  
2017-Aug-10 15:33N 49°34' W 002°21'22 9.1
2017-Aug-10 13:08N 49°44' W 001°51'1 9.3
2017-Aug-10 13:00N 49°44' W 001°49'4 8.8
2017-Aug-10 12:30N 49°42' W 001°42'4 7.6
2017-Aug-10 12:00N 49°40' W 001°38'1 2.2
2017-Aug-10 11:29N 49°39' W 001°37'0 0.0
2017-Aug-10 10:59N 49°39' W 001°37'0 0.0
2017-Aug-09 22:12N 49°39' W 001°37'0 0.0
2017-Aug-09 22:00N 49°39' W 001°37'0 0.0
2017-Aug-09 21:27N 49°39' W 001°37'0 0.0
2017-Aug-09 21:00N 49°39' W 001°37'0 0.0
2017-Aug-09 20:30N 49°39' W 001°37'0 0.0
2017-Aug-09 20:00N 49°39' W 001°37'0 0.0
2017-Aug-09 19:30N 49°39' W 001°37'0 0.0
2017-Aug-09 19:00N 49°39' W 001°37'0 0.0
2017-Aug-09 18:30N 49°39' W 001°37'0 0.0
2017-Aug-09 18:00N 49°39' W 001°37'0 0.0
2017-Aug-09 17:30N 49°39' W 001°37'0 0.0
2017-Aug-08 17:00N 49°39' W 001°37'0 0.0
2017-Aug-08 16:30N 49°39' W 001°37'0 0.0
2017-Aug-08 16:00N 49°39' W 001°37'1 1.9
2017-Aug-08 15:30N 49°40' W 001°37'4 7.6
2017-Aug-08 15:00N 49°42' W 001°32'4 8.6
2017-Aug-08 14:30N 49°44' W 001°26'4 8.4
2017-Aug-08 14:00N 49°46' W 001°20'  
Track history (hours):
 
Tides and Currents Weather Stations Pressure Air Temp Water Temp Dewpoint Dewpoint Depression Visibility Wind Speed Wind Dir Waves Ship Positions

Hold Fast

Last reported at 2017-Aug-17 14:43 UTC. Time now 2017-Nov-19 02:48 UTC.
Position N 47°57' W 005°19'.
Warning: this ship's position is months out of date.

Length 17 m.

Type: Sailing vessel. MMSI: 244660241.

Date/timePositionNaut miles runAvg speedWind from/ knotsBaromVisibWave heightAir tempDewpointWater temp
2017-Aug-17 14:43N 47°57' W 005°19'16 6.0
2017-Aug-17 11:58N 48°12' W 005°09'7 6.9
2017-Aug-17 10:58N 48°14' W 004°59'7 6.9
2017-Aug-17 09:53N 48°16' W 004°49'2 6.5
2017-Aug-17 09:30N 48°17' W 004°45'3 6.3
2017-Aug-17 09:00N 48°18' W 004°41'3 6.6
2017-Aug-17 08:30N 48°20' W 004°36'3 5.9
2017-Aug-17 08:00N 48°21' W 004°32'3 4.8
2017-Aug-17 07:28N 48°23' W 004°29'0 0.0
2017-Aug-17 06:58N 48°23' W 004°29'0 0.0
2017-Aug-16 21:36N 48°23' W 004°29'0 0.0
2017-Aug-16 21:30N 48°23' W 004°29'0 0.0
2017-Aug-16 21:00N 48°23' W 004°29'0 0.0
2017-Aug-16 20:30N 48°23' W 004°29'0 0.0
2017-Aug-16 20:00N 48°23' W 004°29'0 0.0
2017-Aug-16 19:30N 48°23' W 004°29'0 0.0
2017-Aug-16 19:00N 48°23' W 004°29'0 0.0
2017-Aug-16 18:30N 48°23' W 004°29'0 0.0
2017-Aug-16 18:00N 48°23' W 004°29'0 0.0
2017-Aug-16 17:25N 48°23' W 004°29'0 0.0
2017-Aug-16 16:58N 48°23' W 004°29'0 0.0
2017-Aug-15 17:05N 48°23' W 004°29'0 0.0
2017-Aug-15 17:00N 48°23' W 004°29'3 6.1
2017-Aug-15 16:30N 48°21' W 004°33'3 5.4
2017-Aug-15 16:00N 48°20' W 004°37'2 3.9
2017-Aug-15 15:30N 48°20' W 004°40'2 3.7
2017-Aug-15 15:00N 48°19' W 004°43'1 2.9
2017-Aug-15 14:30N 48°19' W 004°45'1 2.6
2017-Aug-15 13:59N 48°19' W 004°47'7 8.6
2017-Aug-15 13:07N 48°26' W 004°50'2 8.4
2017-Aug-15 12:56N 48°28' W 004°50'3 7.8
2017-Aug-15 12:30N 48°31' W 004°49'  
2017-Aug-10 15:33N 49°34' W 002°21'22 9.1
2017-Aug-10 13:08N 49°44' W 001°51'1 9.3
2017-Aug-10 13:00N 49°44' W 001°49'4 8.8
2017-Aug-10 12:30N 49°42' W 001°42'4 7.6
2017-Aug-10 12:00N 49°40' W 001°38'1 2.2
2017-Aug-10 11:29N 49°39' W 001°37'0 0.0
2017-Aug-10 10:59N 49°39' W 001°37'0 0.0
2017-Aug-09 22:12N 49°39' W 001°37'0 0.0
2017-Aug-09 22:00N 49°39' W 001°37'0 0.0
2017-Aug-09 21:27N 49°39' W 001°37'0 0.0
2017-Aug-09 21:00N 49°39' W 001°37'0 0.0
2017-Aug-09 20:30N 49°39' W 001°37'0 0.0
2017-Aug-09 20:00N 49°39' W 001°37'0 0.0
2017-Aug-09 19:30N 49°39' W 001°37'0 0.0
2017-Aug-09 19:00N 49°39' W 001°37'0 0.0
2017-Aug-09 18:30N 49°39' W 001°37'0 0.0
2017-Aug-09 18:00N 49°39' W 001°37'0 0.0
2017-Aug-09 17:30N 49°39' W 001°37'0 0.0
2017-Aug-08 17:00N 49°39' W 001°37'0 0.0
2017-Aug-08 16:30N 49°39' W 001°37'0 0.0
2017-Aug-08 16:00N 49°39' W 001°37'1 1.9
2017-Aug-08 15:30N 49°40' W 001°37'4 7.6
2017-Aug-08 15:00N 49°42' W 001°32'4 8.6
2017-Aug-08 14:30N 49°44' W 001°26'4 8.4
2017-Aug-08 14:00N 49°46' W 001°20'  

Dump ship's entire track history